SXS314 LTFM-LTFE
Flight info
| Callsign | SXS314 |
|---|---|
| Flight time | 0h 54m |
| Altitude | 35000 |
| Route | RATVU1E/36 RATVU UT35 NUMTI/N0447F360 DCT KULAR/N0447F370 UT44 LAVTA UW87 KAVAK |
| Aircraft | B38M/M-SDE1FGHILORVWXY/HB1 |
Departure
| Time | 2026-05-06 05:25 |
|---|---|
| Airport | İstanbul Airport (LTFM) |
Arrival
| Time | 2026-05-06 06:20 |
|---|---|
| Airport | Milas Bodrum International Airport (LTFE) |
| Time | Latitude | Longitude | Altitude | Speed | Heading |
|---|---|---|---|---|---|
| 2026-05-06 05:01 | 41.26434 | 28.74916 | 181 ft | 0 kts | 287° |
| 2026-05-06 05:16 | 41.26431 | 28.74933 | 181 ft | 2 kts | 281° |
| 2026-05-06 05:16 | 41.26429 | 28.74954 | 181 ft | 2 kts | 265° |
| 2026-05-06 05:16 | 41.26434 | 28.74975 | 181 ft | 2 kts | 223° |
| 2026-05-06 05:16 | 41.26446 | 28.74984 | 181 ft | 1 kts | 195° |
| 2026-05-06 05:17 | 41.26447 | 28.74984 | 181 ft | 0 kts | 194° |
| 2026-05-06 05:21 | 41.26431 | 28.74981 | 181 ft | 4 kts | 184° |
| 2026-05-06 05:21 | 41.26396 | 28.74988 | 181 ft | 4 kts | 146° |
| 2026-05-06 05:21 | 41.26342 | 28.75011 | 181 ft | 14 kts | 181° |
| 2026-05-06 05:22 | 41.26239 | 28.75049 | 181 ft | 18 kts | 120° |
| 2026-05-06 05:22 | 41.26230 | 28.75217 | 182 ft | 19 kts | 89° |
| 2026-05-06 05:22 | 41.26232 | 28.75403 | 182 ft | 21 kts | 89° |
| 2026-05-06 05:22 | 41.26233 | 28.75533 | 182 ft | 3 kts | 89° |
| 2026-05-06 05:23 | 41.26234 | 28.75583 | 182 ft | 12 kts | 89° |
| 2026-05-06 05:24 | 41.26263 | 28.75663 | 182 ft | 6 kts | 18° |
| 2026-05-06 05:24 | 41.26301 | 28.75668 | 182 ft | 6 kts | 359° |
| 2026-05-06 05:24 | 41.26535 | 28.75665 | 181 ft | 73 kts | 359° |
| 2026-05-06 05:24 | 41.26985 | 28.75655 | 182 ft | 121 kts | 359° |
| 2026-05-06 05:25 | 41.28034 | 28.75627 | 230 ft | 174 kts | 359° |
| 2026-05-06 05:25 | 41.29273 | 28.75609 | 896 ft | 180 kts | 0° |
| 2026-05-06 05:25 | 41.30510 | 28.75667 | 1812 ft | 178 kts | 9° |
| 2026-05-06 05:25 | 41.31697 | 28.76333 | 2166 ft | 205 kts | 37° |
| 2026-05-06 05:26 | 41.32722 | 28.77833 | 2496 ft | 228 kts | 50° |
| 2026-05-06 05:26 | 41.33809 | 28.79385 | 3262 ft | 234 kts | 37° |
| 2026-05-06 05:26 | 41.35191 | 28.80568 | 3990 ft | 237 kts | 27° |
| 2026-05-06 05:26 | 41.36660 | 28.81651 | 4715 ft | 245 kts | 26° |
| 2026-05-06 05:27 | 41.38052 | 28.82928 | 5567 ft | 251 kts | 40° |
| 2026-05-06 05:27 | 41.38976 | 28.85009 | 5987 ft | 275 kts | 78° |
| 2026-05-06 05:27 | 41.38750 | 28.87522 | 6902 ft | 281 kts | 109° |
| 2026-05-06 05:27 | 41.37660 | 28.89731 | 7592 ft | 291 kts | 131° |
| 2026-05-06 05:28 | 41.36121 | 28.91519 | 8367 ft | 297 kts | 143° |
| 2026-05-06 05:28 | 41.34325 | 28.92904 | 9121 ft | 302 kts | 154° |
| 2026-05-06 05:28 | 41.32311 | 28.93745 | 9879 ft | 306 kts | 168° |
| 2026-05-06 05:28 | 41.30176 | 28.94194 | 10418 ft | 318 kts | 172° |
| 2026-05-06 05:29 | 41.27909 | 28.94504 | 10702 ft | 337 kts | 175° |
| 2026-05-06 05:29 | 41.25521 | 28.94686 | 11118 ft | 349 kts | 180° |
| 2026-05-06 05:29 | 41.23092 | 28.94539 | 11858 ft | 351 kts | 183° |
| 2026-05-06 05:29 | 41.20636 | 28.94344 | 12574 ft | 356 kts | 184° |
| 2026-05-06 05:30 | 41.18146 | 28.94133 | 13329 ft | 361 kts | 184° |
| 2026-05-06 05:30 | 41.15626 | 28.93914 | 14066 ft | 365 kts | 184° |
| 2026-05-06 05:30 | 41.13076 | 28.93689 | 14789 ft | 368 kts | 184° |
| 2026-05-06 05:30 | 41.10510 | 28.93462 | 15537 ft | 371 kts | 184° |
| 2026-05-06 05:31 | 41.07941 | 28.93235 | 16277 ft | 374 kts | 184° |
| 2026-05-06 05:31 | 41.05353 | 28.93006 | 16991 ft | 377 kts | 184° |
| 2026-05-06 05:31 | 41.02756 | 28.92775 | 17690 ft | 380 kts | 185° |
| 2026-05-06 05:31 | 41.00073 | 28.92445 | 18380 ft | 384 kts | 186° |
| 2026-05-06 05:32 | 40.97409 | 28.92109 | 18968 ft | 387 kts | 186° |
| 2026-05-06 05:32 | 40.94713 | 28.91774 | 19548 ft | 389 kts | 186° |
| 2026-05-06 05:32 | 40.92048 | 28.91446 | 20117 ft | 392 kts | 186° |
| 2026-05-06 05:32 | 40.89322 | 28.91111 | 20657 ft | 395 kts | 186° |
| 2026-05-06 05:33 | 40.86567 | 28.90946 | 21184 ft | 398 kts | 177° |
| 2026-05-06 05:33 | 40.83793 | 28.91185 | 21725 ft | 400 kts | 177° |
| 2026-05-06 05:33 | 40.81007 | 28.91406 | 22246 ft | 403 kts | 177° |
| 2026-05-06 05:33 | 40.78190 | 28.91631 | 22767 ft | 407 kts | 177° |
| 2026-05-06 05:34 | 40.75346 | 28.91860 | 23282 ft | 409 kts | 177° |
| 2026-05-06 05:34 | 40.72496 | 28.92089 | 23786 ft | 412 kts | 177° |
| 2026-05-06 05:34 | 40.69626 | 28.92320 | 24217 ft | 415 kts | 177° |
| 2026-05-06 05:34 | 40.66736 | 28.92552 | 24668 ft | 417 kts | 177° |
| 2026-05-06 05:35 | 40.63836 | 28.92785 | 25109 ft | 419 kts | 177° |
| 2026-05-06 05:35 | 40.60906 | 28.93020 | 25554 ft | 422 kts | 177° |
| 2026-05-06 05:35 | 40.57970 | 28.93261 | 26027 ft | 424 kts | 176° |
| 2026-05-06 05:35 | 40.55120 | 28.94074 | 26432 ft | 427 kts | 158° |
| 2026-05-06 05:36 | 40.52505 | 28.95914 | 26870 ft | 429 kts | 147° |
| 2026-05-06 05:36 | 40.49968 | 28.98015 | 27204 ft | 434 kts | 147° |
| 2026-05-06 05:36 | 40.47412 | 29.00150 | 27628 ft | 435 kts | 147° |
| 2026-05-06 05:36 | 40.44862 | 29.02305 | 28027 ft | 438 kts | 147° |
| 2026-05-06 05:37 | 40.42295 | 29.04485 | 28408 ft | 441 kts | 147° |
| 2026-05-06 05:37 | 40.39715 | 29.06679 | 28791 ft | 443 kts | 147° |
| 2026-05-06 05:37 | 40.37124 | 29.08880 | 29168 ft | 445 kts | 147° |
| 2026-05-06 05:37 | 40.34528 | 29.11086 | 29543 ft | 447 kts | 147° |
| 2026-05-06 05:38 | 40.31899 | 29.13317 | 29920 ft | 450 kts | 147° |
| 2026-05-06 05:38 | 40.29265 | 29.15551 | 30250 ft | 452 kts | 147° |
| 2026-05-06 05:38 | 40.26616 | 29.17795 | 30546 ft | 454 kts | 147° |
| 2026-05-06 05:38 | 40.23955 | 29.20047 | 30842 ft | 456 kts | 147° |
| 2026-05-06 05:39 | 40.21288 | 29.22302 | 31121 ft | 458 kts | 147° |
| 2026-05-06 05:39 | 40.18559 | 29.24490 | 31387 ft | 460 kts | 155° |
| 2026-05-06 05:39 | 40.15565 | 29.25977 | 31682 ft | 462 kts | 161° |
| 2026-05-06 05:39 | 40.12534 | 29.27436 | 31857 ft | 466 kts | 160° |
| 2026-05-06 05:40 | 40.09486 | 29.28904 | 32146 ft | 468 kts | 160° |
| 2026-05-06 05:40 | 40.06425 | 29.30364 | 32429 ft | 470 kts | 160° |
| 2026-05-06 05:40 | 40.03358 | 29.31822 | 32676 ft | 472 kts | 160° |
| 2026-05-06 05:40 | 40.00270 | 29.33287 | 32940 ft | 474 kts | 160° |
| 2026-05-06 05:41 | 39.97168 | 29.34757 | 33243 ft | 474 kts | 160° |
| 2026-05-06 05:41 | 39.94063 | 29.36227 | 33605 ft | 474 kts | 160° |
| 2026-05-06 05:41 | 39.90974 | 29.37720 | 33951 ft | 473 kts | 158° |
| 2026-05-06 05:41 | 39.87955 | 29.39402 | 34291 ft | 472 kts | 157° |
| 2026-05-06 05:42 | 39.84929 | 29.41072 | 34555 ft | 472 kts | 158° |
| 2026-05-06 05:42 | 39.81898 | 29.42727 | 34806 ft | 473 kts | 158° |
| 2026-05-06 05:42 | 39.78892 | 29.44362 | 35039 ft | 474 kts | 158° |
| 2026-05-06 05:42 | 39.75856 | 29.46011 | 35121 ft | 475 kts | 158° |
| 2026-05-06 05:43 | 39.69752 | 29.49249 | 35094 ft | 472 kts | 164° |
| 2026-05-06 05:43 | 39.66545 | 29.50021 | 35088 ft | 467 kts | 180° |
| 2026-05-06 05:43 | 39.63322 | 29.49726 | 35125 ft | 465 kts | 193° |
| 2026-05-06 05:44 | 39.60261 | 29.48468 | 35082 ft | 460 kts | 208° |
| 2026-05-06 05:44 | 39.57486 | 29.46439 | 35130 ft | 458 kts | 213° |
| 2026-05-06 05:44 | 39.52069 | 29.42051 | 35111 ft | 458 kts | 215° |
| 2026-05-06 05:45 | 39.46722 | 29.37547 | 35104 ft | 458 kts | 216° |
| 2026-05-06 05:45 | 39.41398 | 29.33020 | 35103 ft | 458 kts | 216° |
| 2026-05-06 05:46 | 39.36080 | 29.28501 | 35102 ft | 458 kts | 216° |
| 2026-05-06 05:46 | 39.30794 | 29.24017 | 35093 ft | 458 kts | 217° |
| 2026-05-06 05:47 | 39.25466 | 29.19506 | 35107 ft | 459 kts | 217° |
| 2026-05-06 05:47 | 39.20111 | 29.14981 | 35107 ft | 459 kts | 216° |
| 2026-05-06 05:48 | 39.14763 | 29.10469 | 35104 ft | 460 kts | 217° |
| 2026-05-06 05:48 | 39.09411 | 29.05963 | 35100 ft | 460 kts | 217° |
| 2026-05-06 05:49 | 39.04054 | 29.01461 | 35113 ft | 460 kts | 217° |
| 2026-05-06 05:49 | 38.98693 | 28.96964 | 35107 ft | 460 kts | 217° |
| 2026-05-06 05:50 | 38.93358 | 28.92497 | 35102 ft | 462 kts | 217° |
| 2026-05-06 05:50 | 38.87955 | 28.87981 | 35113 ft | 463 kts | 217° |
| 2026-05-06 05:51 | 38.82559 | 28.83479 | 35105 ft | 462 kts | 217° |
| 2026-05-06 05:51 | 38.77169 | 28.78991 | 35103 ft | 462 kts | 217° |
| 2026-05-06 05:52 | 38.71783 | 28.74514 | 35110 ft | 461 kts | 217° |
| 2026-05-06 05:52 | 38.66397 | 28.70044 | 35107 ft | 461 kts | 217° |
| 2026-05-06 05:53 | 38.63713 | 28.67820 | 35003 ft | 456 kts | 217° |
| 2026-05-06 05:53 | 38.61049 | 28.65646 | 34447 ft | 455 kts | 214° |
| 2026-05-06 05:53 | 38.58112 | 28.64082 | 33661 ft | 465 kts | 197° |
| 2026-05-06 05:53 | 38.54883 | 28.63628 | 32949 ft | 467 kts | 180° |
| 2026-05-06 05:54 | 38.51680 | 28.63892 | 32542 ft | 455 kts | 179° |
| 2026-05-06 05:54 | 38.48550 | 28.64108 | 32214 ft | 447 kts | 179° |
| 2026-05-06 05:54 | 38.45467 | 28.64344 | 31792 ft | 443 kts | 179° |
| 2026-05-06 05:54 | 38.42395 | 28.64591 | 31255 ft | 442 kts | 179° |
| 2026-05-06 05:55 | 38.39319 | 28.64842 | 30714 ft | 442 kts | 179° |
| 2026-05-06 05:55 | 38.36290 | 28.65092 | 30204 ft | 442 kts | 179° |
| 2026-05-06 05:55 | 38.33228 | 28.65345 | 29675 ft | 440 kts | 179° |
| 2026-05-06 05:55 | 38.30186 | 28.65595 | 29175 ft | 437 kts | 179° |
| 2026-05-06 05:56 | 38.27165 | 28.65844 | 28697 ft | 434 kts | 179° |
| 2026-05-06 05:56 | 38.24159 | 28.66091 | 28235 ft | 431 kts | 179° |
| 2026-05-06 05:56 | 38.21169 | 28.66336 | 27772 ft | 429 kts | 179° |
| 2026-05-06 05:56 | 38.18195 | 28.66582 | 27318 ft | 427 kts | 179° |
| 2026-05-06 05:57 | 38.15235 | 28.66824 | 26853 ft | 425 kts | 179° |
| 2026-05-06 05:57 | 38.12296 | 28.67064 | 26407 ft | 422 kts | 179° |
| 2026-05-06 05:57 | 38.09377 | 28.67303 | 25956 ft | 417 kts | 179° |
| 2026-05-06 05:57 | 38.06500 | 28.67539 | 25514 ft | 412 kts | 179° |
| 2026-05-06 05:58 | 38.03665 | 28.67771 | 25088 ft | 405 kts | 179° |
| 2026-05-06 05:58 | 38.00892 | 28.67996 | 24692 ft | 403 kts | 179° |
| 2026-05-06 05:58 | 37.98099 | 28.68225 | 24283 ft | 402 kts | 179° |
| 2026-05-06 05:58 | 37.95316 | 28.68452 | 23874 ft | 400 kts | 179° |
| 2026-05-06 05:59 | 37.92539 | 28.68678 | 23429 ft | 400 kts | 179° |
| 2026-05-06 05:59 | 37.89763 | 28.68904 | 22971 ft | 399 kts | 179° |
| 2026-05-06 05:59 | 37.87002 | 28.69129 | 22545 ft | 396 kts | 179° |
| 2026-05-06 05:59 | 37.84266 | 28.69352 | 22154 ft | 394 kts | 179° |
| 2026-05-06 06:00 | 37.81536 | 28.69573 | 21762 ft | 392 kts | 179° |
| 2026-05-06 06:00 | 37.78828 | 28.69794 | 21360 ft | 390 kts | 179° |
| 2026-05-06 06:00 | 37.76132 | 28.70012 | 20973 ft | 387 kts | 179° |
| 2026-05-06 06:00 | 37.73448 | 28.70230 | 20584 ft | 385 kts | 179° |
| 2026-05-06 06:01 | 37.70778 | 28.70425 | 20157 ft | 384 kts | 179° |
| 2026-05-06 06:01 | 37.68117 | 28.70613 | 19788 ft | 382 kts | 179° |
| 2026-05-06 06:01 | 37.65467 | 28.70801 | 19406 ft | 380 kts | 179° |
| 2026-05-06 06:01 | 37.62824 | 28.70989 | 19021 ft | 378 kts | 179° |
| 2026-05-06 06:02 | 37.60219 | 28.71174 | 18653 ft | 372 kts | 179° |
| 2026-05-06 06:02 | 37.57657 | 28.71356 | 18252 ft | 366 kts | 179° |
| 2026-05-06 06:02 | 37.55137 | 28.71535 | 17842 ft | 361 kts | 179° |
| 2026-05-06 06:02 | 37.52634 | 28.71713 | 17457 ft | 359 kts | 179° |
| 2026-05-06 06:03 | 37.50140 | 28.71899 | 17068 ft | 358 kts | 178° |
| 2026-05-06 06:03 | 37.47669 | 28.72138 | 16661 ft | 357 kts | 177° |
| 2026-05-06 06:03 | 37.45229 | 28.72371 | 16535 ft | 347 kts | 177° |
| 2026-05-06 06:03 | 37.42872 | 28.72595 | 16339 ft | 340 kts | 178° |
| 2026-05-06 06:04 | 37.40524 | 28.72816 | 16185 ft | 332 kts | 178° |
| 2026-05-06 06:04 | 37.38264 | 28.72732 | 15658 ft | 331 kts | 197° |
| 2026-05-06 06:04 | 37.36183 | 28.71548 | 15257 ft | 319 kts | 222° |
| 2026-05-06 06:04 | 37.34730 | 28.69616 | 14856 ft | 302 kts | 243° |
| 2026-05-06 06:05 | 37.33759 | 28.67339 | 14454 ft | 292 kts | 248° |
| 2026-05-06 06:05 | 37.32866 | 28.65072 | 14012 ft | 287 kts | 250° |
| 2026-05-06 06:05 | 37.32011 | 28.62818 | 13551 ft | 285 kts | 250° |
| 2026-05-06 06:05 | 37.31171 | 28.60556 | 13096 ft | 288 kts | 250° |
| 2026-05-06 06:06 | 37.30326 | 28.58257 | 12670 ft | 291 kts | 251° |
| 2026-05-06 06:06 | 37.29477 | 28.55930 | 12220 ft | 294 kts | 251° |
| 2026-05-06 06:06 | 37.28639 | 28.53627 | 11868 ft | 286 kts | 251° |
| 2026-05-06 06:06 | 37.27827 | 28.51391 | 11595 ft | 278 kts | 250° |
| 2026-05-06 06:07 | 37.27036 | 28.49203 | 11375 ft | 273 kts | 250° |
| 2026-05-06 06:07 | 37.26251 | 28.47037 | 11146 ft | 273 kts | 250° |
| 2026-05-06 06:07 | 37.25464 | 28.44866 | 10893 ft | 273 kts | 250° |
| 2026-05-06 06:07 | 37.24675 | 28.42691 | 10637 ft | 274 kts | 250° |
| 2026-05-06 06:08 | 37.23883 | 28.40510 | 10372 ft | 275 kts | 250° |
| 2026-05-06 06:08 | 37.23088 | 28.38324 | 10086 ft | 275 kts | 250° |
| 2026-05-06 06:08 | 37.22296 | 28.36145 | 9759 ft | 274 kts | 251° |
| 2026-05-06 06:08 | 37.22056 | 28.35486 | 9656 ft | 273 kts | 251° |
| 2026-05-06 06:09 | 37.21420 | 28.33738 | 9431 ft | 271 kts | 251° |
| 2026-05-06 06:09 | 37.20641 | 28.31600 | 9166 ft | 269 kts | 251° |
| 2026-05-06 06:09 | 37.19868 | 28.29479 | 8892 ft | 267 kts | 250° |
| 2026-05-06 06:10 | 37.19091 | 28.27349 | 8692 ft | 269 kts | 250° |
| 2026-05-06 06:10 | 37.18321 | 28.25238 | 8491 ft | 263 kts | 250° |
| 2026-05-06 06:10 | 37.17567 | 28.23173 | 8233 ft | 259 kts | 250° |
| 2026-05-06 06:10 | 37.16820 | 28.21132 | 7938 ft | 254 kts | 251° |
| 2026-05-06 06:11 | 37.16099 | 28.19156 | 7651 ft | 244 kts | 251° |
| 2026-05-06 06:11 | 37.15408 | 28.17275 | 7452 ft | 232 kts | 251° |
| 2026-05-06 06:11 | 37.14751 | 28.15480 | 7269 ft | 223 kts | 251° |
| 2026-05-06 06:11 | 37.14200 | 28.13707 | 7081 ft | 212 kts | 268° |
| 2026-05-06 06:12 | 37.14322 | 28.11960 | 6816 ft | 197 kts | 292° |
| 2026-05-06 06:12 | 37.14670 | 28.10311 | 6715 ft | 196 kts | 292° |
| 2026-05-06 06:12 | 37.15033 | 28.08670 | 6606 ft | 195 kts | 294° |
| 2026-05-06 06:12 | 37.15404 | 28.07042 | 6454 ft | 194 kts | 294° |
| 2026-05-06 06:13 | 37.15782 | 28.05418 | 6288 ft | 193 kts | 294° |
| 2026-05-06 06:13 | 37.16034 | 28.04349 | 6205 ft | 193 kts | 294° |
| 2026-05-06 06:13 | 37.16412 | 28.02741 | 6017 ft | 191 kts | 294° |
| 2026-05-06 06:13 | 37.16796 | 28.01143 | 5945 ft | 191 kts | 294° |
| 2026-05-06 06:14 | 37.17307 | 27.99026 | 5811 ft | 192 kts | 294° |
| 2026-05-06 06:14 | 37.17693 | 27.97433 | 5662 ft | 191 kts | 295° |
| 2026-05-06 06:14 | 37.17965 | 27.96362 | 5570 ft | 191 kts | 295° |
| 2026-05-06 06:14 | 37.18355 | 27.94793 | 5370 ft | 190 kts | 295° |
| 2026-05-06 06:15 | 37.18747 | 27.93188 | 5127 ft | 190 kts | 295° |
| 2026-05-06 06:15 | 37.19126 | 27.91602 | 4937 ft | 198 kts | 294° |
| 2026-05-06 06:15 | 37.19520 | 27.89953 | 4563 ft | 190 kts | 293° |
| 2026-05-06 06:15 | 37.19879 | 27.88435 | 4276 ft | 174 kts | 293° |
| 2026-05-06 06:16 | 37.20209 | 27.87060 | 4019 ft | 156 kts | 293° |
| 2026-05-06 06:16 | 37.20519 | 27.85772 | 3781 ft | 153 kts | 293° |
| 2026-05-06 06:16 | 37.20824 | 27.84500 | 3506 ft | 152 kts | 292° |
| 2026-05-06 06:16 | 37.21125 | 27.83235 | 3245 ft | 151 kts | 292° |
| 2026-05-06 06:17 | 37.21427 | 27.81983 | 2982 ft | 150 kts | 291° |
| 2026-05-06 06:17 | 37.21724 | 27.80735 | 2720 ft | 149 kts | 290° |
| 2026-05-06 06:17 | 37.22023 | 27.79486 | 2461 ft | 149 kts | 289° |
| 2026-05-06 06:17 | 37.22319 | 27.78235 | 2195 ft | 149 kts | 289° |
| 2026-05-06 06:18 | 37.22617 | 27.76990 | 1942 ft | 149 kts | 289° |
| 2026-05-06 06:18 | 37.22906 | 27.75755 | 1665 ft | 147 kts | 289° |
| 2026-05-06 06:18 | 37.23194 | 27.74538 | 1383 ft | 145 kts | 290° |
| 2026-05-06 06:18 | 37.23481 | 27.73335 | 1135 ft | 141 kts | 288° |
| 2026-05-06 06:19 | 37.23762 | 27.72172 | 907 ft | 139 kts | 288° |
| 2026-05-06 06:19 | 37.24038 | 27.70999 | 661 ft | 141 kts | 287° |
| 2026-05-06 06:19 | 37.24332 | 27.69799 | 419 ft | 146 kts | 286° |
| 2026-05-06 06:19 | 37.24609 | 27.68591 | 171 ft | 145 kts | 288° |
| 2026-05-06 06:20 | 37.24896 | 27.67419 | 28 ft | 131 kts | 287° |
| 2026-05-06 06:20 | 37.25081 | 27.66649 | 21 ft | 26 kts | 286° |
| 2026-05-06 06:20 | 37.25134 | 27.66424 | 21 ft | 22 kts | 287° |
| 2026-05-06 06:20 | 37.25180 | 27.66244 | 20 ft | 23 kts | 288° |
| 2026-05-06 06:21 | 37.25227 | 27.66043 | 19 ft | 26 kts | 285° |
| 2026-05-06 06:21 | 37.25255 | 27.65835 | 17 ft | 21 kts | 267° |
| 2026-05-06 06:21 | 37.25225 | 27.65643 | 19 ft | 23 kts | 243° |
| 2026-05-06 06:21 | 37.25164 | 27.65618 | 20 ft | 7 kts | 140° |
| 2026-05-06 06:22 | 37.25142 | 27.65673 | 18 ft | 8 kts | 107° |
| 2026-05-06 06:22 | 37.25135 | 27.65698 | 20 ft | 9 kts | 107° |
| 2026-05-06 06:22 | 37.25125 | 27.65738 | 18 ft | 10 kts | 107° |
| 2026-05-06 06:23 | 37.25102 | 27.65836 | 19 ft | 16 kts | 107° |
| 2026-05-06 06:23 | 37.25057 | 27.66017 | 20 ft | 26 kts | 108° |
| 2026-05-06 06:23 | 37.25013 | 27.66201 | 21 ft | 11 kts | 106° |
| 2026-05-06 06:23 | 37.24981 | 27.66340 | 23 ft | 23 kts | 105° |
| 2026-05-06 06:24 | 37.24938 | 27.66510 | 21 ft | 14 kts | 123° |
| 2026-05-06 06:24 | 37.24852 | 27.66516 | 21 ft | 13 kts | 197° |
| 2026-05-06 06:24 | 37.24762 | 27.66518 | 24 ft | 14 kts | 179° |
| 2026-05-06 06:24 | 37.24711 | 27.66488 | 23 ft | 7 kts | 217° |
| 2026-05-06 06:25 | 37.24708 | 27.66485 | 23 ft | 0 kts | 216° |